Time;durP1;ratioP1;P1;durP2;ratioP2;P2;SDS_P1;SDS_P2;PMS_P1;PMS_P2;Temp;Humidity;BMP_temperature;BMP_pressure;BME280_temperature;BME280_humidity;BME280_pressure;Samples;Min_cycle;Max_cycle;Signal;HPM_P1;HPM_P2
2022/01/05 00:00:49;;;;;;;4.73;2.47;;;;;;;5.23;92.60;98668.38;1645310;87;21069;-76
2022/01/05 00:03:16;;;;;;;6.00;3.03;;;;;;;5.22;92.56;98666.71;1645679;87;21459;-77
2022/01/05 00:05:43;;;;;;;4.50;3.13;;;;;;;5.22;92.62;98670.14;1645721;87;21109;-78
2022/01/05 00:08:12;;;;;;;4.03;2.70;;;;;;;5.24;92.64;98673.53;1645204;87;21157;-75
2022/01/05 00:10:40;;;;;;;3.63;2.60;;;;;;;5.25;92.64;98676.50;1645784;87;21046;-76
2022/01/05 00:13:07;;;;;;;4.93;2.90;;;;;;;5.27;92.61;98685.54;1645675;87;21054;-76
2022/01/05 00:15:34;;;;;;;4.00;2.80;;;;;;;5.27;92.65;98683.78;1645300;87;21014;-75
2022/01/05 00:18:02;;;;;;;5.10;2.83;;;;;;;5.29;92.68;98689.77;1645509;87;21030;-75
2022/01/05 00:20:30;;;;;;;5.10;2.70;;;;;;;5.32;92.73;98691.36;1645623;87;21121;-77
2022/01/05 00:22:57;;;;;;;4.80;2.90;;;;;;;5.35;92.78;98689.95;1645392;87;21037;-75
2022/01/05 00:25:25;;;;;;;3.53;2.77;;;;;;;5.39;92.74;98688.90;1644961;87;21057;-77
2022/01/05 00:27:52;;;;;;;5.00;2.60;;;;;;;5.42;92.77;98693.95;1645324;87;21062;-78
2022/01/05 00:30:20;;;;;;;4.43;2.90;;;;;;;5.44;92.79;98683.05;1645683;87;21582;-77
2022/01/05 00:32:48;;;;;;;4.33;2.60;;;;;;;5.48;92.71;98688.48;1645213;87;21150;-75
2022/01/05 00:35:15;;;;;;;4.00;3.30;;;;;;;5.49;92.72;98679.80;1645513;87;21502;-77
2022/01/05 00:37:42;;;;;;;6.17;3.40;;;;;;;5.53;92.75;98677.91;1645375;87;21045;-77
2022/01/05 00:40:11;;;;;;;5.63;3.17;;;;;;;5.55;92.53;98674.79;1645681;87;21061;-76
2022/01/05 00:42:38;;;;;;;5.53;3.50;;;;;;;5.55;92.49;98674.79;1645325;87;21061;-75
2022/01/05 00:45:06;;;;;;;8.13;4.03;;;;;;;5.56;92.45;98676.47;1645428;87;21088;-75
2022/01/05 00:47:34;;;;;;;6.53;3.20;;;;;;;5.57;92.56;98682.91;1645218;87;21098;-76
2022/01/05 00:50:01;;;;;;;5.87;3.60;;;;;;;5.59;92.57;98684.13;1645320;85;21061;-76
2022/01/05 00:52:28;;;;;;;6.03;3.50;;;;;;;5.60;92.48;98681.94;1645377;87;21041;-78
2022/01/05 00:54:55;;;;;;;4.77;3.50;;;;;;;5.62;92.50;98689.64;1645704;87;21081;-75
2022/01/05 00:57:22;;;;;;;5.77;4.03;;;;;;;5.64;92.53;98698.23;1645337;87;21212;-77
2022/01/05 00:59:49;;;;;;;5.97;3.93;;;;;;;5.64;92.42;98692.56;1645545;87;21053;-76
2022/01/05 01:02:16;;;;;;;5.90;4.00;;;;;;;5.65;92.44;98690.34;1645469;87;21491;-75
2022/01/05 01:04:43;;;;;;;6.93;3.93;;;;;;;5.68;92.49;98690.66;1645542;87;21140;-79
2022/01/05 01:07:10;;;;;;;7.20;4.27;;;;;;;5.68;92.40;98685.47;1645316;87;21014;-77
2022/01/05 01:09:37;;;;;;;9.37;4.73;;;;;;;5.68;92.43;98686.34;1645526;87;21183;-75
2022/01/05 01:12:05;;;;;;;7.67;4.07;;;;;;;5.69;92.30;98691.91;1645316;87;21006;-75
2022/01/05 01:14:32;;;;;;;7.30;3.93;;;;;;;5.68;92.25;98691.53;1645599;87;21653;-75
2022/01/05 01:16:59;;;;;;;6.53;4.03;;;;;;;5.68;92.25;98692.83;1645275;87;21026;-75
2022/01/05 01:19:27;;;;;;;6.70;3.70;;;;;;;5.69;92.26;98704.07;1645380;87;21061;-77
2022/01/05 01:21:55;;;;;;;7.23;4.00;;;;;;;5.69;92.27;98706.20;1645552;87;21125;-75
2022/01/05 01:24:22;;;;;;;10.77;4.27;;;;;;;5.69;92.23;98713.17;1645142;87;21640;-75
2022/01/05 01:26:49;;;;;;;8.00;4.00;;;;;;;5.69;92.26;98715.30;1645539;87;21130;-77
2022/01/05 01:29:16;;;;;;;6.17;4.17;;;;;;;5.69;92.12;98730.91;1645396;87;21025;-76
2022/01/05 01:31:43;;;;;;;7.00;4.50;;;;;;;5.68;92.07;98724.03;1645629;87;21134;-76
2022/01/05 01:34:11;;;;;;;5.93;4.50;;;;;;;5.67;92.11;98726.68;1645412;87;21988;-75
2022/01/05 01:36:38;;;;;;;5.87;3.57;;;;;;;5.68;92.11;98727.06;1645404;87;20934;-75
2022/01/05 01:39:05;;;;;;;6.63;3.87;;;;;;;5.67;92.08;98716.28;1645293;87;21050;-75
2022/01/05 01:41:32;;;;;;;7.67;3.73;;;;;;;5.66;92.00;98723.24;1645508;87;21022;-75
2022/01/05 01:43:59;;;;;;;6.50;3.67;;;;;;;5.65;92.00;98721.53;1645328;87;21049;-75
2022/01/05 01:46:27;;;;;;;5.43;3.57;;;;;;;5.64;91.97;98720.32;1645571;87;21144;-75
2022/01/05 01:48:55;;;;;;;7.27;4.30;;;;;;;5.63;92.00;98716.88;1649202;85;21382;-75
2022/01/05 01:51:22;;;;;;;5.20;3.20;;;;;;;5.62;91.98;98719.07;1652397;86;21072;-75
2022/01/05 01:53:50;;;;;;;6.10;3.80;;;;;;;5.62;92.00;98729.93;1652352;86;21049;-75
2022/01/05 01:56:19;;;;;;;5.97;3.37;;;;;;;5.62;92.01;98723.44;1652494;86;21026;-77
2022/01/05 01:58:48;;;;;;;4.78;3.25;;;;;;;5.63;92.05;98727.28;1652761;86;21966;-75
2022/01/05 02:01:16;;;;;;;6.40;3.70;;;;;;;5.63;92.01;98725.14;1652323;86;21041;-75
2022/01/05 02:03:43;;;;;;;5.53;4.23;;;;;;;5.62;92.05;98711.73;1652459;86;21117;-75
2022/01/05 02:06:10;;;;;;;7.17;3.50;;;;;;;5.64;92.04;98711.22;1652492;86;21096;-75
2022/01/05 02:08:37;;;;;;;5.60;3.93;;;;;;;5.64;92.03;98702.96;1652601;86;21291;-75
2022/01/05 02:11:07;;;;;;;5.50;2.90;;;;;;;5.66;92.03;98695.11;1652378;86;21221;-75
2022/01/05 02:13:35;;;;;;;8.33;3.62;;;;;;;5.67;92.05;98706.72;1652701;86;21530;-77
2022/01/05 02:16:04;;;;;;;5.60;2.87;;;;;;;5.69;92.02;98707.97;1652327;86;21036;-75
2022/01/05 02:21:12;;;;;;;4.73;3.17;;;;;;;5.69;91.94;98710.57;1652408;86;21077;-75
2022/01/05 02:23:40;;;;;;;4.00;2.45;;;;;;;5.69;91.92;98714.47;1652775;86;21062;-75
2022/01/05 02:26:10;;;;;;;5.30;3.27;;;;;;;5.70;91.92;98710.95;1652377;86;21599;-75
2022/01/05 02:28:36;;;;;;;3.27;2.80;;;;;;;5.71;91.96;98706.13;1652820;86;21093;-75
2022/01/05 02:31:04;;;;;;;4.00;2.83;;;;;;;5.71;91.93;98701.80;1652457;86;21054;-75
2022/01/05 02:33:32;;;;;;;5.57;3.30;;;;;;;5.71;91.93;98695.30;1652375;86;21104;-75
2022/01/05 02:36:00;;;;;;;6.20;3.30;;;;;;;5.73;91.94;98692.15;1652422;86;21145;-76
2022/01/05 02:38:28;;;;;;;5.07;3.10;;;;;;;5.72;91.88;98684.44;1652228;86;21531;-75
2022/01/05 02:40:55;;;;;;;6.67;3.57;;;;;;;5.71;91.94;98686.20;1652529;86;21065;-76
2022/01/05 02:43:23;;;;;;;5.27;3.03;;;;;;;5.71;91.96;98690.09;1652452;86;21022;-75
2022/01/05 02:45:50;;;;;;;6.90;3.20;;;;;;;5.70;91.98;98692.75;1652522;86;21286;-75
2022/01/05 02:48:17;;;;;;;6.70;3.03;;;;;;;5.70;92.00;98695.34;1652513;86;21975;-75
2022/01/05 02:50:44;;;;;;;4.30;3.00;;;;;;;5.70;92.05;98692.28;1652321;85;21010;-75
2022/01/05 02:53:11;;;;;;;5.30;2.97;;;;;;;5.71;92.12;98688.80;1652548;86;21105;-75
2022/01/05 02:55:39;;;;;;;4.40;2.90;;;;;;;5.73;92.03;98697.81;1652531;86;20946;-76
2022/01/05 02:58:07;;;;;;;7.50;3.13;;;;;;;5.73;92.10;98695.20;1652582;86;21041;-75
2022/01/05 03:00:34;;;;;;;5.30;3.10;;;;;;;5.74;92.10;98699.05;1652576;86;21086;-74
2022/01/05 03:03:01;;;;;;;5.70;2.97;;;;;;;5.75;92.06;98708.99;1652318;86;21049;-75
2022/01/05 03:05:28;;;;;;;5.33;2.97;;;;;;;5.75;91.92;98709.83;1652822;86;21053;-76
2022/01/05 03:07:55;;;;;;;4.57;3.13;;;;;;;5.74;92.03;98713.81;1641582;86;21064;-75
2022/01/05 03:10:22;;;;;;;5.03;3.20;;;;;;;5.75;92.08;98711.13;1641288;87;21346;-77
2022/01/05 03:12:49;;;;;;;4.50;2.73;;;;;;;5.74;91.99;98713.35;1640990;87;21156;-75
2022/01/05 03:15:17;;;;;;;4.33;2.83;;;;;;;5.73;91.98;98701.70;1640944;87;21653;-74
2022/01/05 03:17:44;;;;;;;4.07;3.20;;;;;;;5.72;91.97;98692.23;1641000;87;21061;-75
2022/01/05 03:20:14;;;;;;;4.03;2.77;;;;;;;5.72;91.91;98694.83;1641037;87;21072;-75
2022/01/05 03:22:41;;;;;;;6.33;3.12;;;;;;;5.71;91.99;98697.89;1641161;87;21041;-76
2022/01/05 03:25:15;;;;;;;5.23;3.10;;;;;;;5.68;91.91;98694.56;1640879;87;21237;-76
2022/01/05 03:27:38;;;;;;;4.40;2.92;;;;;;;5.68;91.92;98696.73;1640479;87;21049;-75
2022/01/05 03:30:08;;;;;;;6.17;3.23;;;;;;;5.69;91.92;98702.31;1640971;87;21042;-75
2022/01/05 03:32:46;;;;;;;6.17;3.43;;;;;;;5.67;91.91;98692.89;1640928;87;21101;-75
2022/01/05 03:35:05;;;;;;;6.43;3.53;;;;;;;5.67;91.88;98696.79;1639395;87;21026;-75
2022/01/05 03:37:32;;;;;;;5.17;3.60;;;;;;;5.67;91.89;98699.39;1640933;87;22015;-75
2022/01/05 03:39:59;;;;;;;6.07;3.77;;;;;;;5.65;91.93;98696.84;1641092;87;21000;-75
2022/01/05 03:42:27;;;;;;;6.33;3.63;;;;;;;5.64;91.92;98695.63;1640977;87;21120;-75
2022/01/05 03:44:54;;;;;;;5.47;3.17;;;;;;;5.65;91.95;98693.41;1641076;87;21420;-74
2022/01/05 03:47:22;;;;;;;6.47;2.93;;;;;;;5.65;91.96;98685.61;1640895;87;21108;-74
2022/01/05 03:49:49;;;;;;;4.97;3.47;;;;;;;5.64;92.06;98675.67;1640905;87;21135;-75
2022/01/05 03:52:16;;;;;;;4.87;3.30;;;;;;;5.69;92.34;98665.92;1640761;87;21048;-74
2022/01/05 03:54:43;;;;;;;3.43;2.80;;;;;;;5.69;92.05;98667.68;1641155;87;21009;-74
2022/01/05 03:57:10;;;;;;;4.27;2.70;;;;;;;5.68;91.94;98680.27;1640828;87;21041;-75
2022/01/05 03:59:36;;;;;;;6.67;3.17;;;;;;;5.66;91.99;98688.16;1641108;87;21120;-75
2022/01/05 04:02:04;;;;;;;5.03;3.13;;;;;;;5.66;91.88;98684.25;1640912;87;21267;-75
2022/01/05 04:04:31;;;;;;;4.97;3.00;;;;;;;5.64;91.99;98679.57;1641109;87;21646;-75
2022/01/05 04:06:59;;;;;;;4.57;3.13;;;;;;;5.65;92.11;98677.34;1640777;87;21101;-74
2022/01/05 04:09:26;;;;;;;4.90;3.10;;;;;;;5.66;91.98;98684.72;1641174;87;21017;-74
2022/01/05 04:11:53;;;;;;;5.30;3.33;;;;;;;5.65;91.91;98683.01;1640899;87;21122;-74
2022/01/05 04:14:20;;;;;;;4.57;2.70;;;;;;;5.66;92.03;98684.72;1641072;87;21073;-75
2022/01/05 04:16:48;;;;;;;4.53;2.63;;;;;;;5.65;92.04;98680.41;1640865;87;20981;-74
2022/01/05 04:19:15;;;;;;;4.70;3.20;;;;;;;5.66;92.24;98680.36;1640413;87;21066;-75
2022/01/05 04:21:42;;;;;;;5.70;3.03;;;;;;;5.68;92.22;98692.83;1601839;89;21027;-76
2022/01/05 04:24:09;;;;;;;5.33;3.20;;;;;;;5.71;92.16;98698.33;1613968;88;21245;-75
2022/01/05 04:26:36;;;;;;;5.40;3.30;;;;;;;5.70;92.03;98702.69;1601704;89;21336;-75
2022/01/05 04:29:04;;;;;;;4.37;3.17;;;;;;;5.71;92.27;98695.72;1613859;88;21046;-75
2022/01/05 04:31:31;;;;;;;4.70;3.20;;;;;;;5.74;92.16;98685.22;1601765;89;21062;-74
2022/01/05 04:33:58;;;;;;;5.60;3.40;;;;;;;5.73;92.18;98677.02;1613602;89;21031;-75
2022/01/05 04:36:26;;;;;;;4.03;2.70;;;;;;;5.77;92.25;98680.72;1601995;89;21070;-75
2022/01/05 04:38:53;;;;;;;4.03;2.90;;;;;;;5.76;92.05;98683.37;1601701;89;21194;-75
2022/01/05 04:41:20;;;;;;;5.73;3.17;;;;;;;5.76;92.17;98672.97;1601727;89;21031;-75
2022/01/05 04:43:47;;;;;;;4.37;2.93;;;;;;;5.78;92.07;98685.45;1613659;89;21162;-74
2022/01/05 04:46:14;;;;;;;6.70;3.07;;;;;;;5.77;92.06;98684.62;1601684;89;21085;-74
2022/01/05 04:48:42;;;;;;;6.30;3.20;;;;;;;5.76;91.89;98680.34;1613674;89;21101;-78
2022/01/05 04:51:09;;;;;;;5.23;3.23;;;;;;;5.71;91.78;98670.60;1614725;88;21178;-74
2022/01/05 04:53:36;;;;;;;5.23;3.03;;;;;;;5.71;91.98;98685.33;1622820;88;22195;-74
2022/01/05 04:56:04;;;;;;;5.67;3.57;;;;;;;5.70;91.90;98683.19;1622980;88;21062;-78
2022/01/05 04:58:31;;;;;;;4.30;3.10;;;;;;;5.68;91.84;98687.64;1623009;88;21161;-76
2022/01/05 05:00:58;;;;;;;5.07;3.10;;;;;;;5.67;91.79;98693.73;1622958;88;21583;-77
2022/01/05 05:03:25;;;;;;;4.00;3.10;;;;;;;5.65;91.79;98701.20;1622974;88;21288;-77
2022/01/05 05:05:52;;;;;;;5.07;3.30;;;;;;;5.61;91.75;98692.70;1623203;88;21030;-74
2022/01/05 05:08:18;;;;;;;6.27;3.57;;;;;;;5.59;91.85;98690.16;1622965;88;21537;-75
2022/01/05 05:10:46;;;;;;;4.67;3.57;;;;;;;5.57;91.99;98690.70;1623257;88;21039;-75
2022/01/05 05:13:13;;;;;;;6.57;3.63;;;;;;;5.59;92.25;98688.02;1622852;88;21065;-75
2022/01/05 05:15:41;;;;;;;4.57;3.20;;;;;;;5.59;92.24;98678.92;1623301;88;21156;-75
2022/01/05 05:18:09;;;;;;;5.60;3.50;;;;;;;5.59;92.36;98678.47;1622822;88;21010;-75
2022/01/05 05:20:36;;;;;;;7.53;3.60;;;;;;;5.65;92.67;98681.70;1623032;88;21534;-76
2022/01/05 05:23:04;;;;;;;5.47;3.27;;;;;;;5.62;92.30;98685.28;1622797;88;21094;-76
2022/01/05 05:25:31;;;;;;;5.67;4.27;;;;;;;5.59;92.30;98686.72;1623122;88;21086;-77
2022/01/05 05:27:58;;;;;;;6.20;3.80;;;;;;;5.54;92.07;98689.55;1622685;88;21103;-77
2022/01/05 05:30:26;;;;;;;7.73;4.10;;;;;;;5.49;92.00;98694.55;1622909;88;20990;-77
2022/01/05 05:32:55;;;;;;;6.53;4.00;;;;;;;5.45;92.02;98688.63;1622734;88;21145;-76
2022/01/05 05:35:22;;;;;;;8.00;3.90;;;;;;;5.42;92.13;98673.63;1623061;88;21038;-76
2022/01/05 05:37:49;;;;;;;7.10;3.97;;;;;;;5.39;92.30;98665.52;1622630;88;21065;-76
2022/01/05 05:40:16;;;;;;;5.83;3.93;;;;;;;5.37;92.45;98662.13;1622936;88;21326;-76
2022/01/05 05:42:43;;;;;;;7.00;4.23;;;;;;;5.39;92.87;98664.67;1622784;88;21092;-75
2022/01/05 05:45:11;;;;;;;7.23;3.80;;;;;;;5.39;92.82;98666.81;1622647;88;21081;-76
2022/01/05 05:47:38;;;;;;;6.83;4.67;;;;;;;5.38;92.88;98665.14;1622780;88;21111;-75
2022/01/05 05:50:05;;;;;;;6.13;4.20;;;;;;;5.34;92.62;98672.20;1621673;88;22082;-76
2022/01/05 05:52:33;;;;;;;6.33;4.10;;;;;;;5.32;92.68;98673.17;1613456;89;21161;-75
2022/01/05 05:55:00;;;;;;;7.43;4.70;;;;;;;5.28;92.64;98671.17;1601420;89;21038;-76
2022/01/05 05:57:27;;;;;;;6.07;4.03;;;;;;;5.24;92.67;98666.20;1613388;89;21562;-76
2022/01/05 05:59:54;;;;;;;9.10;5.00;;;;;;;5.19;92.75;98663.78;1601424;89;21499;-76
2022/01/05 06:02:21;;;;;;;7.10;4.90;;;;;;;5.16;92.74;98669.11;1613290;89;21094;-76
2022/01/05 06:04:48;;;;;;;7.63;5.03;;;;;;;5.15;92.89;98670.00;1601444;89;21136;-76
2022/01/05 06:07:16;;;;;;;10.70;5.40;;;;;;;5.11;92.93;98671.06;1613371;89;21082;-76
2022/01/05 06:09:43;;;;;;;8.57;5.00;;;;;;;5.10;92.98;98673.28;1601481;89;21062;-76
2022/01/05 06:12:10;;;;;;;9.27;5.23;;;;;;;5.07;93.00;98674.67;1613703;88;21052;-77
2022/01/05 06:14:38;;;;;;;8.67;5.67;;;;;;;5.05;93.13;98669.56;1601419;89;21606;-77
2022/01/05 06:17:05;;;;;;;7.93;5.13;;;;;;;5.03;93.20;98668.78;1613650;88;21957;-77
2022/01/05 06:19:33;;;;;;;9.43;5.93;;;;;;;5.03;93.33;98675.27;1601477;89;21126;-77
2022/01/05 06:22:00;;;;;;;10.13;5.57;;;;;;;5.04;93.56;98672.21;1613651;88;21087;-77
2022/01/05 06:24:27;;;;;;;8.60;6.20;;;;;;;5.05;93.62;98666.97;1601341;89;21135;-77
2022/01/05 06:26:54;;;;;;;13.03;8.83;;;;;;;5.09;93.98;98669.81;1613665;88;21031;-77
2022/01/05 06:29:21;;;;;;;7.67;5.00;;;;;;;5.14;94.10;98670.92;1601444;89;21161;-77
2022/01/05 06:31:48;;;;;;;10.90;6.73;;;;;;;5.17;93.99;98673.39;1601734;89;21057;-77
2022/01/05 06:34:15;;;;;;;7.30;4.10;;;;;;;5.18;93.99;98663.84;1613310;89;21552;-77
2022/01/05 06:36:42;;;;;;;6.57;3.97;;;;;;;5.19;93.91;98674.64;1601611;89;21394;-77
2022/01/05 06:39:11;;;;;;;5.83;3.80;;;;;;;5.19;93.82;98675.94;1613367;89;21043;-77
2022/01/05 06:41:38;;;;;;;6.97;4.33;;;;;;;5.19;93.84;98671.58;1601676;89;21908;-77
2022/01/05 06:44:05;;;;;;;6.43;4.30;;;;;;;5.17;93.63;98672.55;1613289;89;21554;-77
2022/01/05 06:46:33;;;;;;;6.43;4.20;;;;;;;5.14;93.53;98675.66;1601440;89;21097;-77
2022/01/05 06:49:00;;;;;;;6.77;3.63;;;;;;;5.12;93.56;98677.92;1613430;89;21317;-77
2022/01/05 06:51:27;;;;;;;7.17;4.07;;;;;;;5.11;93.54;98671.06;1601398;88;21146;-77
2022/01/05 06:53:54;;;;;;;6.33;3.77;;;;;;;5.12;93.90;98681.83;1613415;89;21172;-76
2022/01/05 06:56:21;;;;;;;7.03;3.90;;;;;;;5.10;93.60;98683.66;1601415;89;21082;-76
2022/01/05 06:58:49;;;;;;;4.97;3.77;;;;;;;5.07;93.51;98685.06;1613314;89;21770;-77
2022/01/05 07:01:17;;;;;;;6.80;4.00;;;;;;;5.04;93.51;98686.03;1601342;89;21043;-77
2022/01/05 07:03:44;;;;;;;5.77;3.83;;;;;;;5.02;93.61;98684.44;1613380;89;21058;-77
2022/01/05 07:06:11;;;;;;;6.47;3.93;;;;;;;5.02;93.60;98685.73;1601413;89;22212;-77
2022/01/05 07:08:39;;;;;;;6.57;4.03;;;;;;;5.01;93.75;98680.97;1613330;89;21039;-76
2022/01/05 07:11:06;;;;;;;7.20;3.80;;;;;;;5.01;93.61;98681.44;1601446;88;21101;-77
2022/01/05 07:13:34;;;;;;;6.37;4.13;;;;;;;4.98;93.69;98678.50;1613623;89;21130;-77
2022/01/05 07:16:01;;;;;;;6.53;4.00;;;;;;;4.96;93.61;98682.95;1601485;89;21566;-76
2022/01/05 07:18:28;;;;;;;6.43;3.60;;;;;;;4.95;93.78;98682.53;1614212;87;21980;-76
2022/01/05 07:20:55;;;;;;;6.50;3.87;;;;;;;4.96;93.80;98692.03;1639247;87;21066;-76
2022/01/05 07:23:22;;;;;;;8.90;4.27;;;;;;;4.97;93.79;98692.88;1652377;86;21045;-75
2022/01/05 07:25:49;;;;;;;5.97;3.80;;;;;;;4.95;93.73;98695.52;1652332;86;21037;-76
2022/01/05 07:28:16;;;;;;;7.33;4.33;;;;;;;4.97;93.94;98693.70;1652487;86;21033;-76
2022/01/05 07:30:43;;;;;;;7.70;3.57;;;;;;;4.99;94.01;98691.90;1652252;86;22400;-76
2022/01/05 07:33:10;;;;;;;7.00;3.90;;;;;;;5.04;94.07;98689.09;1652388;86;20998;-77
2022/01/05 07:35:37;;;;;;;7.47;3.70;;;;;;;5.06;94.08;98688.58;1651292;86;21509;-77
2022/01/05 07:38:04;;;;;;;6.50;3.80;;;;;;;5.07;94.08;98688.96;1652647;86;21014;-77
2022/01/05 07:40:31;;;;;;;5.17;3.13;;;;;;;5.10;94.16;98686.27;1652348;86;21578;-77
2022/01/05 07:42:58;;;;;;;5.33;3.00;;;;;;;5.15;94.32;98685.59;1652427;86;21109;-78
2022/01/05 07:45:25;;;;;;;3.70;2.20;;;;;;;5.20;94.54;98685.40;1652229;86;21611;-77
2022/01/05 07:47:52;;;;;;;3.30;2.80;;;;;;;5.25;94.45;98684.75;1652327;86;21495;-76
2022/01/05 07:50:19;;;;;;;4.37;2.87;;;;;;;5.25;94.15;98688.19;1652548;86;21045;-75
2022/01/05 07:52:46;;;;;;;3.77;2.33;;;;;;;5.27;94.40;98682.95;1646328;85;21535;-76
2022/01/05 07:55:14;;;;;;;4.37;2.43;;;;;;;5.29;94.19;98679.80;1645279;87;21191;-75
2022/01/05 07:57:41;;;;;;;4.13;2.03;;;;;;;5.29;94.11;98686.30;1645139;87;21602;-76
2022/01/05 08:00:09;;;;;;;3.00;1.87;;;;;;;5.27;93.92;98685.54;1645486;87;21018;-75
2022/01/05 08:02:37;;;;;;;4.63;2.03;;;;;;;5.28;94.16;98694.55;1645226;87;21037;-77
2022/01/05 08:05:06;;;;;;;3.43;2.10;;;;;;;5.28;93.89;98695.84;1640760;87;21131;-79
2022/01/05 08:07:33;;;;;;;4.95;2.90;;;;;;;5.27;93.85;98689.44;1637465;87;21092;-78
2022/01/05 08:10:00;;;;;;;2.50;1.70;;;;;;;5.26;93.88;98692.47;1637429;87;21047;-78
2022/01/05 08:12:27;;;;;;;3.53;1.93;;;;;;;5.27;94.08;98695.47;1638290;87;21086;-78
2022/01/05 08:14:54;;;;;;;3.73;2.23;;;;;;;5.27;93.86;98693.33;1638276;87;21037;-78
2022/01/05 08:17:21;;;;;;;4.10;2.80;;;;;;;5.25;93.86;98706.37;1612204;89;21122;-78
2022/01/05 08:19:48;;;;;;;3.70;2.40;;;;;;;5.24;93.78;98703.86;1623421;87;21672;-78
2022/01/05 08:22:16;;;;;;;2.50;1.50;;;;;;;5.18;93.66;98708.83;1645381;87;21065;-76
2022/01/05 08:24:43;;;;;;;6.13;2.60;;;;;;;5.12;93.44;98728.11;1645173;87;21073;-80
2022/01/05 08:27:10;;;;;;;4.00;1.70;;;;;;;4.99;92.80;98728.68;1645076;87;21478;-78
2022/01/05 08:29:37;;;;;;;2.33;0.93;;;;;;;4.86;92.31;98723.16;1645115;87;21081;-79
2022/01/05 08:32:05;;;;;;;3.97;1.50;;;;;;;4.74;92.25;98747.87;1645354;87;21964;-78
2022/01/05 08:34:32;;;;;;;6.33;2.30;;;;;;;4.61;91.98;98768.25;1638878;87;21070;-78
2022/01/05 08:36:59;;;;;;;5.67;1.87;;;;;;;4.42;91.68;98776.34;1637401;87;21062;-77
2022/01/05 08:39:26;;;;;;;1.90;0.90;;;;;;;4.33;91.88;98783.19;1618603;87;21059;-78
2022/01/05 08:41:54;;;;;;;2.20;1.20;;;;;;;4.17;91.69;98784.20;1621692;87;21111;-77
2022/01/05 08:44:21;;;;;;;1.90;0.90;;;;;;;4.07;91.85;98791.91;1621174;88;21100;-79
2022/01/05 08:46:48;;;;;;;2.57;1.10;;;;;;;3.95;91.78;98797.94;1621712;88;21044;-79
2022/01/05 08:49:15;;;;;;;4.20;1.30;;;;;;;3.87;91.91;98799.95;1620858;88;21641;-79
2022/01/05 08:51:44;;;;;;;2.67;1.20;;;;;;;3.78;91.92;98803.72;1623102;88;21504;-80
2022/01/05 08:54:11;;;;;;;2.47;1.40;;;;;;;3.72;91.91;98804.39;1640648;87;21034;-78
2022/01/05 08:56:38;;;;;;;4.70;2.00;;;;;;;3.65;92.09;98808.92;1625531;88;21156;-80
2022/01/05 08:59:05;;;;;;;3.07;1.50;;;;;;;3.63;92.41;98818.52;1628383;88;21138;-78
2022/01/05 09:01:32;;;;;;;2.20;1.43;;;;;;;3.62;92.43;98821.14;1628494;88;21043;-77
2022/01/05 09:03:59;;;;;;;3.93;1.80;;;;;;;3.63;92.75;98826.71;1628773;88;21159;-80
2022/01/05 09:06:26;;;;;;;4.07;2.47;;;;;;;3.62;92.62;98811.63;1628507;88;21576;-77
2022/01/05 09:08:53;;;;;;;3.40;1.67;;;;;;;3.61;92.71;98815.58;1628827;88;21087;-77
2022/01/05 09:11:20;;;;;;;3.70;1.87;;;;;;;3.65;93.13;98824.92;1628490;88;21039;-78
2022/01/05 09:13:47;;;;;;;1.77;1.10;;;;;;;3.69;93.09;98833.01;1628626;88;21591;-77
2022/01/05 09:16:14;;;;;;;2.07;1.00;;;;;;;3.67;92.96;98845.16;1628550;88;21043;-77
2022/01/05 09:18:41;;;;;;;3.13;1.23;;;;;;;3.69;92.95;98840.78;1628705;88;21523;-79
2022/01/05 09:21:08;;;;;;;3.73;1.50;;;;;;;3.66;92.75;98845.61;1628539;88;21160;-76
2022/01/05 09:23:35;;;;;;;6.63;3.30;;;;;;;3.71;93.27;98842.84;1628651;88;21134;-77
2022/01/05 09:26:03;;;;;;;5.50;3.17;;;;;;;3.70;92.68;98848.48;1628445;88;21067;-80
2022/01/05 09:28:30;;;;;;;5.10;1.67;;;;;;;3.68;92.70;98857.20;1628851;88;21067;-79
2022/01/05 09:30:57;;;;;;;3.83;1.37;;;;;;;3.65;92.50;98868.97;1612159;89;21101;-80
2022/01/05 09:33:24;;;;;;;5.13;1.97;;;;;;;3.61;92.27;98875.17;1625658;88;21975;-79
2022/01/05 09:36:00;;;;;;;2.40;1.50;;;;;;;3.56;92.40;98880.48;1628420;88;21660;-79
2022/01/05 09:38:36;;;;;;;1.97;1.17;;;;;;;3.48;91.99;98888.95;1626894;88;21103;-78
2022/01/05 09:43:51;;;;;;;5.33;2.13;;;;;;;3.34;92.16;98872.56;1628490;88;21114;-78
2022/01/05 09:46:38;;;;;;;2.73;1.30;;;;;;;3.35;92.47;98875.55;1628783;88;21239;-77
2022/01/05 09:49:18;;;;;;;3.97;1.97;;;;;;;3.38;92.62;98868.13;1639272;87;21013;-77
2022/01/05 09:51:48;;;;;;;2.98;1.27;;;;;;;3.38;92.64;98873.30;1604109;87;21229;-78
2022/01/05 09:54:15;;;;;;;;;;;;;;;3.34;92.59;98876.45;1631058;88;21134;-77
2022/01/05 09:56:43;;;;;;;2.83;0.93;;;;;;;3.38;92.82;98872.88;1628710;88;20431;-78
2022/01/05 09:59:10;;;;;;;1.80;1.00;;;;;;;3.38;92.59;98881.08;1628545;88;21918;-78
2022/01/05 10:01:38;;;;;;;2.20;1.20;;;;;;;3.32;92.37;98898.95;1628660;88;21079;-76
2022/01/05 10:04:05;;;;;;;5.43;2.07;;;;;;;3.27;92.16;98904.72;1628424;88;21071;-78
2022/01/05 10:06:36;;;;;;;7.67;2.90;;;;;;;3.26;92.35;98915.98;1628678;88;21549;-80
2022/01/05 10:09:03;;;;;;;7.43;3.40;;;;;;;3.23;92.40;98923.39;1628510;88;21098;-77
2022/01/05 10:11:30;;;;;;;4.63;2.10;;;;;;;3.22;92.40;98924.75;1628588;88;21117;-76
2022/01/05 10:13:57;;;;;;;4.80;2.00;;;;;;;3.19;92.23;98916.63;1628402;88;21086;-78
2022/01/05 10:16:25;;;;;;;7.60;2.77;;;;;;;3.17;92.21;98911.09;1628759;88;21044;-76
2022/01/05 10:18:52;;;;;;;9.60;4.43;;;;;;;3.17;92.42;98904.63;1628283;88;21063;-76
2022/01/05 10:21:19;;;;;;;6.60;2.43;;;;;;;3.16;92.23;98911.97;1628680;88;21130;-77
2022/01/05 10:23:52;;;;;;;7.33;2.93;;;;;;;3.13;92.09;98917.67;1628267;88;21139;-76
2022/01/05 10:26:40;;;;;;;4.47;2.40;;;;;;;3.10;92.18;98921.65;1628684;88;20998;-77
2022/01/05 10:29:23;;;;;;;4.07;1.80;;;;;;;3.09;92.23;98924.27;1628398;88;21062;-78
2022/01/05 10:31:56;;;;;;;7.17;2.47;;;;;;;3.07;92.26;98924.75;1627910;88;21112;-81
2022/01/05 10:34:28;;;;;;;7.97;2.50;;;;;;;3.08;92.28;98939.41;1628414;88;21098;-78
2022/01/05 10:37:02;;;;;;;5.13;2.43;;;;;;;3.06;92.31;98935.56;1628377;88;21383;-78
2022/01/05 10:39:39;;;;;;;6.13;2.57;;;;;;;3.07;92.33;98934.66;1643584;87;21597;-79
2022/01/05 10:42:11;;;;;;;6.20;1.97;;;;;;;3.10;92.42;98942.78;1628795;88;21101;-80
2022/01/05 10:44:41;;;;;;;5.53;1.93;;;;;;;3.16;92.61;98941.75;1628400;88;21051;-80
2022/01/05 10:47:08;;;;;;;5.62;1.70;;;;;;;3.18;92.45;98949.87;1628816;88;21059;-79
2022/01/05 10:49:39;;;;;;;5.07;1.20;;;;;;;3.21;92.33;98939.42;1628486;88;21192;-77
2022/01/05 10:52:33;;;;;;;5.80;1.80;;;;;;;3.18;92.00;98927.86;1627290;88;21245;-78
2022/01/05 10:55:17;;;;;;;7.37;1.83;;;;;;;3.20;92.02;98925.23;1621472;88;20929;-78
2022/01/05 10:58:04;;;;;;;6.97;2.40;;;;;;;3.22;92.01;98932.52;1621627;88;21051;-77
2022/01/05 11:00:41;;;;;;;6.90;1.40;;;;;;;3.22;91.88;98942.42;1621964;88;21099;-82
2022/01/05 11:03:21;;;;;;;5.10;1.77;;;;;;;3.21;91.88;98943.75;1621821;88;21803;-77
2022/01/05 11:06:14;;;;;;;4.57;1.07;;;;;;;3.20;91.88;98947.25;1638368;87;21690;-80
2022/01/05 11:09:00;;;;;;;4.00;1.00;;;;;;;3.17;91.65;98949.94;1618920;88;21489;-78
2022/01/05 11:11:49;;;;;;;7.93;1.40;;;;;;;3.12;91.52;98951.36;1622254;88;21143;-80
2022/01/05 11:14:29;;;;;;;4.20;0.97;;;;;;;3.07;91.61;98954.52;1621796;88;21055;-78
2022/01/05 11:17:00;;;;;;;4.28;1.27;;;;;;;3.09;91.94;98950.16;1604952;88;21159;-77
2022/01/05 11:19:33;;;;;;;5.83;1.20;;;;;;;3.09;91.77;98941.94;1621401;88;21079;-79
2022/01/05 11:22:07;;;;;;;6.73;1.20;;;;;;;3.05;91.51;98963.64;1621932;88;21051;-78
2022/01/05 11:24:51;;;;;;;6.57;1.80;;;;;;;2.99;91.28;98966.39;1621978;88;21060;-78
2022/01/05 11:27:28;;;;;;;4.53;1.07;;;;;;;2.92;91.19;98971.36;1621373;88;21382;-79
2022/01/05 11:29:57;;;;;;;4.90;1.40;;;;;;;2.90;91.36;98981.74;1621705;88;21170;-82
2022/01/05 11:32:30;;;;;;;5.03;1.25;;;;;;;2.90;91.50;98991.25;1621849;88;21743;-84
2022/01/05 11:34:56;;;;;;;5.65;1.25;;;;;;;2.85;91.27;99001.72;1621528;88;21561;-80
2022/01/05 11:37:23;;;;;;;4.63;1.30;;;;;;;2.82;91.27;99013.45;1621856;88;21091;-79
2022/01/05 11:39:54;;;;;;;4.10;1.40;;;;;;;2.82;91.28;99010.02;1621724;88;21208;-82
2022/01/05 11:42:30;;;;;;;4.03;1.27;;;;;;;2.83;91.30;99011.29;1621845;88;21141;-79
2022/01/05 11:44:57;;;;;;;5.60;1.47;;;;;;;2.85;91.32;99020.29;1621013;88;21090;-80
2022/01/05 11:47:28;;;;;;;5.27;1.10;;;;;;;2.82;91.08;99009.57;1622012;88;21044;-77
2022/01/05 11:50:24;;;;;;;2.83;1.00;;;;;;;2.82;91.07;99006.98;1621932;88;21110;-78
2022/01/05 11:53:07;;;;;;;5.47;1.00;;;;;;;2.84;91.23;99010.39;1623341;88;21119;-78